Etusivu
METAR-TAF:

METAR-TAF

Lentoasemat :

Whiting_Field_Naval_Air_Station_South_Airport

Milton, Florida, Yhdysvallat

Leveyspiiri: 30-41-50N, Pituuspiiri: 087-01-12W, korkeus merenpinnasta: 54 m

Tämänhetkinen sää

Tämä raportti tehtiin 53 minuuttia sitten, kello 14.09 UTC
tyyntä
Lämpötila 17°C
Kosteus 100%
Ilmanpaine 1017 hPa
Näkyvyys: 4.8 km
Hajanaisia pilviä 200 ft:n korkeudessa
Hajonneita pilviä 25000 ft:n korkeudessa
utua

METAR: KNDZ 091409Z 00000KT 3SM BR SCT002 BKN250 17/17 A3003 RMK T01670167

Aika: 09:02 (15:02 UTC)


TAF: puuttuu

Säähavainnot ja -ennusteet yli 4000 lentoasemalta (METAR- ja TAF-raportit).

Käytössä olevat sääasemat on merkitty karttaan keltaisilla ja punaisilla pisteillä.

Aseta hiiri pisteen päälle nähdäksesi sääaseman nimen.

Klikkaa sitten nähdäksesi säähavainnot ja -ennusteet.

Kartan vaihtaminen: klikkaa mustalla rastilla varustettuja vihreitä pisteitä, niin voit zoomata sisään; viivalla varustettua vihreää pistettä, niin voit zoomata ulos tai vihreitä nuolia, niin pääset viereisille kartoille.


METAR-TAF: